createdAt,value
2023-04-28T00:00:07.843Z,2.40
2023-04-28T00:02:37.356Z,1.90
2023-04-28T00:05:06.360Z,2.10
2023-04-28T00:07:34.659Z,2.57
2023-04-28T00:10:02.904Z,2.53
2023-04-28T00:12:31.080Z,2.23
2023-04-28T00:14:59.256Z,2.60
2023-04-28T00:17:27.635Z,1.83
2023-04-28T00:19:57.685Z,2.87
2023-04-28T00:22:26.018Z,2.03
2023-04-28T00:24:54.436Z,2.83
2023-04-28T00:27:22.573Z,2.30
2023-04-28T00:29:50.737Z,2.57
2023-04-28T00:32:19.580Z,2.33
2023-04-28T00:34:47.762Z,2.03
2023-04-28T00:37:17.240Z,2.70
2023-04-28T00:39:47.232Z,1.70
2023-04-28T00:42:16.331Z,2.40
2023-04-28T00:44:44.516Z,2.50
2023-04-28T00:47:12.795Z,2.30
2023-04-28T00:49:40.989Z,2.27
2023-04-28T00:52:09.250Z,2.63
2023-04-28T00:54:38.862Z,2.17
2023-04-28T00:57:07.203Z,2.40
2023-04-28T00:59:35.365Z,2.40
2023-04-28T01:02:04.787Z,3.33
2023-04-28T01:04:34.579Z,3.23
2023-04-28T01:07:04.006Z,2.23
2023-04-28T01:09:32.179Z,2.50
2023-04-28T01:12:01.892Z,2.47
2023-04-28T01:14:39.905Z,2.63
2023-04-28T01:17:09.477Z,2.63
2023-04-28T01:19:37.643Z,2.50
2023-04-28T01:22:06.342Z,3.03
2023-04-28T01:24:35.863Z,2.97
2023-04-28T01:27:07.789Z,2.37
2023-04-28T01:29:36.032Z,2.60
2023-04-28T01:32:05.109Z,2.70
2023-04-28T01:34:34.944Z,3.67
2023-04-28T01:37:03.146Z,3.53
2023-04-28T01:39:31.348Z,2.90
2023-04-28T01:42:02.197Z,2.80
2023-04-28T01:44:30.353Z,2.70
2023-04-28T01:46:58.638Z,3.13
2023-04-28T01:49:26.835Z,3.20
2023-04-28T01:51:54.997Z,2.43
2023-04-28T01:54:23.175Z,3.30
2023-04-28T01:56:51.373Z,2.83
2023-04-28T01:59:23.195Z,2.70
2023-04-28T02:01:51.755Z,2.60
2023-04-28T02:04:20.366Z,2.67
2023-04-28T02:06:48.626Z,3.63
2023-04-28T02:09:16.795Z,2.73
2023-04-28T02:11:45.300Z,2.80
2023-04-28T02:14:13.743Z,2.53
2023-04-28T02:16:43.739Z,2.77
2023-04-28T02:19:13.073Z,2.90
2023-04-28T02:21:42.750Z,3.07
2023-04-28T02:24:10.892Z,3.40
2023-04-28T02:26:39.043Z,2.63
2023-04-28T02:29:07.552Z,2.73
2023-04-28T02:31:36.124Z,3.37
2023-04-28T02:34:05.767Z,2.90
2023-04-28T02:36:34.037Z,2.03
2023-04-28T02:39:02.370Z,2.70
2023-04-28T02:41:31.689Z,2.93
2023-04-28T02:43:59.977Z,3.20
2023-04-28T02:46:28.189Z,3.63
2023-04-28T02:48:56.438Z,4.17
2023-04-28T02:51:26.769Z,3.43
2023-04-28T02:53:54.968Z,3.80
2023-04-28T02:56:24.486Z,2.93
2023-04-28T02:58:52.711Z,3.23
2023-04-28T03:01:20.930Z,3.67
2023-04-28T03:03:49.749Z,3.60
2023-04-28T03:06:18.187Z,3.70
2023-04-28T03:08:47.627Z,3.53
2023-04-28T03:11:15.801Z,3.87
2023-04-28T03:13:44.554Z,2.97
2023-04-28T03:16:12.749Z,3.70
2023-04-28T03:18:41.147Z,3.30
2023-04-28T03:21:09.381Z,3.30
2023-04-28T03:23:37.509Z,3.47
2023-04-28T03:26:07.708Z,3.77
2023-04-28T03:28:35.910Z,4.03
2023-04-28T03:31:04.551Z,4.03
2023-04-28T03:33:32.756Z,4.60
2023-04-28T03:36:01.816Z,5.20
2023-04-28T03:38:30.323Z,4.43
2023-04-28T03:40:58.508Z,4.60
2023-04-28T03:43:35.403Z,4.00
2023-04-28T03:46:12.785Z,3.40
2023-04-28T03:48:41.336Z,3.10
2023-04-28T03:51:09.531Z,3.20
2023-04-28T03:53:37.827Z,3.10
2023-04-28T03:56:07.269Z,4.03
2023-04-28T03:58:36.914Z,4.57
2023-04-28T04:01:05.685Z,3.40
2023-04-28T04:03:34.103Z,3.50
2023-04-28T04:06:02.953Z,3.80
2023-04-28T04:08:32.287Z,3.60
2023-04-28T04:11:01.821Z,3.40
2023-04-28T04:13:30.047Z,3.57
2023-04-28T04:15:59.696Z,3.00
2023-04-28T04:18:28.596Z,2.33
2023-04-28T04:21:15.102Z,4.87
2023-04-28T04:23:43.331Z,3.47
2023-04-28T04:26:11.502Z,3.23
2023-04-28T04:28:40.955Z,2.60
2023-04-28T04:31:12.763Z,2.43
2023-04-28T04:33:41.222Z,2.83
2023-04-28T04:36:09.845Z,4.13
2023-04-28T04:38:38.157Z,2.57
2023-04-28T04:41:14.396Z,3.10
2023-04-28T04:43:42.813Z,2.67
2023-04-28T04:46:12.322Z,3.33
2023-04-28T04:48:40.609Z,3.40
2023-04-28T04:51:08.883Z,3.20
2023-04-28T04:53:37.148Z,3.37
2023-04-28T04:56:06.682Z,2.87
2023-04-28T04:58:37.857Z,3.37
2023-04-28T05:01:25.818Z,4.70
2023-04-28T05:03:54.598Z,3.57
2023-04-28T05:06:22.923Z,2.83
2023-04-28T05:08:51.072Z,2.90
2023-04-28T05:11:19.792Z,3.83
2023-04-28T05:13:48.347Z,2.83
2023-04-28T05:16:16.817Z,3.60
2023-04-28T05:19:06.508Z,3.10
2023-04-28T05:21:34.864Z,3.10
2023-04-28T05:24:03.753Z,3.77
2023-04-28T05:26:32.031Z,3.43
2023-04-28T05:29:06.364Z,3.27
2023-04-28T05:31:34.749Z,2.63
2023-04-28T05:34:03.061Z,2.67
2023-04-28T05:36:33.006Z,2.70
2023-04-28T05:39:01.817Z,2.77
2023-04-28T05:41:30.047Z,3.63
2023-04-28T05:43:58.246Z,2.67
2023-04-28T05:46:30.809Z,3.63
2023-04-28T05:49:00.886Z,3.70
2023-04-28T05:51:35.433Z,3.53
2023-04-28T05:54:04.163Z,2.50
2023-04-28T05:56:36.870Z,2.90
2023-04-28T05:59:05.293Z,4.00
2023-04-28T06:01:33.740Z,3.37
2023-04-28T06:04:02.268Z,5.33
2023-04-28T06:06:32.192Z,3.97
2023-04-28T06:09:04.445Z,4.60
2023-04-28T06:11:34.515Z,4.53
2023-04-28T06:14:02.699Z,3.37
2023-04-28T06:16:30.993Z,5.40
2023-04-28T06:18:59.244Z,5.93
2023-04-28T06:21:28.763Z,4.70
2023-04-28T06:23:58.219Z,4.47
2023-04-28T06:26:27.792Z,5.60
2023-04-28T06:28:56.428Z,5.10
2023-04-28T06:31:24.644Z,4.13
2023-04-28T06:33:55.286Z,4.50
2023-04-28T06:36:24.547Z,7.10
2023-04-28T06:38:52.839Z,3.33
2023-04-28T06:41:21.279Z,3.67
2023-04-28T06:43:53.386Z,3.83
2023-04-28T06:46:26.020Z,2.93
2023-04-28T06:48:54.592Z,3.87
2023-04-28T06:51:22.866Z,3.00
2023-04-28T06:53:53.059Z,3.17
2023-04-28T06:56:21.382Z,3.10
2023-04-28T06:58:49.773Z,3.00
2023-04-28T07:01:19.446Z,3.00
2023-04-28T07:03:47.747Z,3.23
2023-04-28T07:06:16.619Z,2.37
2023-04-28T07:08:45.039Z,2.57
2023-04-28T07:11:13.242Z,2.67
2023-04-28T07:13:41.408Z,2.20
2023-04-28T07:16:10.342Z,2.70
2023-04-28T07:18:40.173Z,2.00
2023-04-28T07:21:08.312Z,2.87
2023-04-28T07:23:38.729Z,2.90
2023-04-28T07:26:07.116Z,2.13
2023-04-28T07:28:35.777Z,2.60
2023-04-28T07:31:04.013Z,3.03
2023-04-28T07:33:32.236Z,2.97
2023-04-28T07:36:02.074Z,2.60
2023-04-28T07:38:30.390Z,2.03
2023-04-28T07:40:58.596Z,3.20
2023-04-28T07:43:26.751Z,2.70
2023-04-28T07:45:55.051Z,2.87
2023-04-28T07:48:23.415Z,2.30
2023-04-28T07:50:51.593Z,3.23
2023-04-28T07:53:21.155Z,3.53
2023-04-28T07:55:49.346Z,3.57
2023-04-28T07:58:17.615Z,3.47
2023-04-28T08:00:46.314Z,3.60
2023-04-28T08:03:14.611Z,3.27
2023-04-28T08:05:45.039Z,4.30
2023-04-28T08:08:13.303Z,2.73
2023-04-28T08:10:43.837Z,3.40
2023-04-28T08:13:12.102Z,3.20
2023-04-28T08:15:40.311Z,3.30
2023-04-28T08:18:08.769Z,3.03
2023-04-28T08:20:36.973Z,3.40
2023-04-28T08:23:05.150Z,3.07
2023-04-28T08:25:33.479Z,4.17
2023-04-28T08:28:03.655Z,3.97
2023-04-28T08:30:31.801Z,3.50
2023-04-28T08:32:59.967Z,3.70
2023-04-28T08:35:28.334Z,3.67
2023-04-28T08:37:57.140Z,3.70
2023-04-28T08:40:26.887Z,3.30
2023-04-28T08:42:56.529Z,3.30
2023-04-28T08:45:28.353Z,3.20
2023-04-28T08:47:57.831Z,2.60
2023-04-28T08:50:28.726Z,3.37
2023-04-28T08:52:57.843Z,2.57
2023-04-28T08:55:27.933Z,3.00
2023-04-28T08:57:57.466Z,4.03
2023-04-28T09:00:27.201Z,3.50
2023-04-28T09:02:55.417Z,3.87
2023-04-28T09:05:24.522Z,3.47
2023-04-28T09:07:52.932Z,3.10
2023-04-28T09:10:23.238Z,4.13
2023-04-28T09:12:54.538Z,3.00
2023-04-28T09:15:33.794Z,3.10
2023-04-28T09:18:03.796Z,3.33
2023-04-28T09:20:33.668Z,3.20
2023-04-28T09:23:15.995Z,3.40
2023-04-28T09:25:58.418Z,3.73
2023-04-28T09:28:26.873Z,4.33
2023-04-28T09:30:57.072Z,3.83
2023-04-28T09:33:25.755Z,3.40
2023-04-28T09:35:54.652Z,4.03
2023-04-28T09:38:24.340Z,3.63
2023-04-28T09:40:58.310Z,3.33
2023-04-28T09:43:28.431Z,3.60
2023-04-28T09:45:59.619Z,3.40
2023-04-28T09:48:31.919Z,4.27
2023-04-28T09:51:00.808Z,4.40
2023-04-28T09:53:30.038Z,4.27
2023-04-28T09:55:59.850Z,3.50
2023-04-28T09:58:30.011Z,4.53
2023-04-28T10:01:01.806Z,3.60
2023-04-28T10:03:32.149Z,3.57
2023-04-28T10:06:00.795Z,3.43
2023-04-28T10:08:29.512Z,3.27
2023-04-28T10:10:58.553Z,3.10
2023-04-28T10:13:27.014Z,3.70
2023-04-28T10:15:58.183Z,4.67
2023-04-28T10:18:30.304Z,4.43
2023-04-28T10:21:03.162Z,4.10
2023-04-28T10:23:50.159Z,3.03
2023-04-28T10:26:19.871Z,4.40
2023-04-28T10:28:48.929Z,4.67
2023-04-28T10:31:18.726Z,5.50
2023-04-28T10:33:49.540Z,4.00
2023-04-28T10:36:49.149Z,4.70
2023-04-28T10:39:17.902Z,5.50
2023-04-28T10:41:47.160Z,4.27
2023-04-28T10:44:43.003Z,4.00
2023-04-28T10:47:11.932Z,4.77
2023-04-28T10:50:12.433Z,4.40
2023-04-28T10:52:50.425Z,4.60
2023-04-28T10:55:32.155Z,4.07
2023-04-28T10:58:41.812Z,5.30
2023-04-28T11:01:26.129Z,3.97
2023-04-28T11:04:01.098Z,4.80
2023-04-28T11:06:32.547Z,5.87
2023-04-28T11:09:02.456Z,5.60
2023-04-28T11:11:34.830Z,5.20
2023-04-28T11:14:33.328Z,4.87
2023-04-28T11:17:03.159Z,5.47
2023-04-28T11:19:33.218Z,5.80
2023-04-28T11:22:05.114Z,5.70
2023-04-28T11:24:33.336Z,5.67
2023-04-28T11:27:02.244Z,5.27
2023-04-28T11:29:35.232Z,3.90
2023-04-28T11:32:04.139Z,5.07
2023-04-28T11:34:32.744Z,4.33
2023-04-28T11:37:03.083Z,6.53
2023-04-28T11:39:33.387Z,5.67
2023-04-28T11:42:04.185Z,4.80
2023-04-28T11:44:32.902Z,6.33
2023-04-28T11:47:03.051Z,5.73
2023-04-28T11:49:33.896Z,5.47
2023-04-28T11:52:07.668Z,6.00
2023-04-28T11:54:36.126Z,4.60
2023-04-28T11:57:05.173Z,3.97
2023-04-28T11:59:34.724Z,5.03
2023-04-28T12:02:04.429Z,4.90
2023-04-28T12:04:35.838Z,5.20
2023-04-28T12:07:07.529Z,5.53
2023-04-28T12:09:36.274Z,4.37
2023-04-28T12:12:06.029Z,4.30
2023-04-28T12:14:54.389Z,4.33
2023-04-28T12:17:26.589Z,4.47
2023-04-28T12:19:55.280Z,5.23
2023-04-28T12:22:25.500Z,4.80
2023-04-28T12:25:08.278Z,4.13
2023-04-28T12:27:39.159Z,4.70
2023-04-28T12:30:25.871Z,4.60
2023-04-28T12:32:55.858Z,6.00
2023-04-28T12:35:24.755Z,5.13
2023-04-28T12:37:55.302Z,4.53
2023-04-28T12:40:24.624Z,4.43
2023-04-28T12:42:52.882Z,4.20
2023-04-28T12:45:21.127Z,5.03
2023-04-28T12:47:49.325Z,5.60
2023-04-28T12:50:17.563Z,4.70
2023-04-28T12:52:45.754Z,5.10
2023-04-28T12:55:15.280Z,5.53
2023-04-28T12:57:43.470Z,4.37
2023-04-28T13:00:16.657Z,4.40
2023-04-28T13:02:45.461Z,5.10
2023-04-28T13:05:14.372Z,4.40
2023-04-28T13:07:42.888Z,4.53
2023-04-28T13:10:12.857Z,4.97
2023-04-28T13:12:42.606Z,4.03
2023-04-28T13:15:12.272Z,4.37
2023-04-28T13:17:40.721Z,4.50
2023-04-28T13:20:10.621Z,4.23
2023-04-28T13:22:38.779Z,4.20
2023-04-28T13:25:07.761Z,5.27
2023-04-28T13:27:37.456Z,3.97
2023-04-28T13:30:08.955Z,4.97
2023-04-28T13:32:37.536Z,3.50
2023-04-28T13:35:06.796Z,3.33
2023-04-28T13:37:35.358Z,4.40
2023-04-28T13:40:04.444Z,4.10
2023-04-28T13:42:33.146Z,4.83
2023-04-28T13:45:01.344Z,4.87
2023-04-28T13:47:32.556Z,5.33
2023-04-28T13:50:01.142Z,4.93
2023-04-28T13:52:29.295Z,4.87
2023-04-28T13:54:57.489Z,5.07
2023-04-28T13:57:25.677Z,3.97
2023-04-28T13:59:53.968Z,4.20
2023-04-28T14:02:22.357Z,4.10
2023-04-28T14:04:52.855Z,4.47
2023-04-28T14:07:21.374Z,4.10
2023-04-28T14:09:50.481Z,4.23
2023-04-28T14:12:18.751Z,3.50
2023-04-28T14:14:48.891Z,3.50
2023-04-28T14:17:17.306Z,3.77
2023-04-28T14:19:45.638Z,3.97
2023-04-28T14:22:15.178Z,4.20
2023-04-28T14:24:43.989Z,4.27
2023-04-28T14:27:12.279Z,4.13
2023-04-28T14:29:42.087Z,3.93
2023-04-28T14:32:10.297Z,4.50
2023-04-28T14:34:38.468Z,3.70
2023-04-28T14:37:06.957Z,4.83
2023-04-28T14:39:39.878Z,3.97
2023-04-28T14:42:08.296Z,3.57
2023-04-28T14:44:37.194Z,3.90
2023-04-28T14:47:05.556Z,3.50
2023-04-28T14:49:34.170Z,4.80
2023-04-28T14:52:02.467Z,4.00
2023-04-28T14:54:30.618Z,4.57
2023-04-28T14:57:00.132Z,3.97
2023-04-28T14:59:28.546Z,3.80
2023-04-28T15:01:56.866Z,6.43
2023-04-28T15:04:29.580Z,3.77
2023-04-28T15:06:59.203Z,4.27
2023-04-28T15:09:27.431Z,4.50
2023-04-28T15:11:55.564Z,3.70
2023-04-28T15:14:25.077Z,3.60
2023-04-28T15:16:53.900Z,4.37
2023-04-28T15:19:22.188Z,4.27
2023-04-28T15:21:50.378Z,7.90
2023-04-28T15:24:21.641Z,4.73
2023-04-28T15:26:49.952Z,3.57
2023-04-28T15:29:18.952Z,4.03
2023-04-28T15:31:48.441Z,3.33
2023-04-28T15:34:16.757Z,3.80
2023-04-28T15:36:44.963Z,3.70
2023-04-28T15:39:13.573Z,3.90
2023-04-28T15:41:41.931Z,4.03
2023-04-28T15:44:10.550Z,4.00
2023-04-28T15:46:38.909Z,3.70
2023-04-28T15:49:09.854Z,4.10
2023-04-28T15:51:38.254Z,4.03
2023-04-28T15:54:06.595Z,4.40
2023-04-28T15:56:35.093Z,3.73
2023-04-28T15:59:04.332Z,5.70
2023-04-28T16:01:32.515Z,5.07
2023-04-28T16:04:01.353Z,3.90
2023-04-28T16:06:32.453Z,4.10
2023-04-28T16:09:00.865Z,4.10
2023-04-28T16:11:29.702Z,4.70
2023-04-28T16:13:57.879Z,3.90
2023-04-28T16:16:26.220Z,3.30
2023-04-28T16:18:55.016Z,4.17
2023-04-28T16:21:23.611Z,3.90
2023-04-28T16:23:53.156Z,4.60
2023-04-28T16:26:22.068Z,4.97
2023-04-28T16:28:50.679Z,4.87
2023-04-28T16:31:18.843Z,5.23
2023-04-28T16:33:47.039Z,4.40
2023-04-28T16:36:15.206Z,4.63
2023-04-28T16:38:45.622Z,5.37
2023-04-28T16:41:16.666Z,4.70
2023-04-28T16:43:44.852Z,7.70
2023-04-28T16:46:13.113Z,6.70
2023-04-28T16:48:42.105Z,5.87
2023-04-28T16:51:10.808Z,7.17
2023-04-28T16:53:39.166Z,6.30
2023-04-28T16:56:09.774Z,5.23
2023-04-28T16:58:40.522Z,5.77
2023-04-28T17:01:08.870Z,5.10
2023-04-28T17:03:41.778Z,5.20
2023-04-28T17:06:11.089Z,4.83
2023-04-28T17:08:40.173Z,5.40
2023-04-28T17:11:09.212Z,4.70
2023-04-28T17:13:37.750Z,5.33
2023-04-28T17:16:07.788Z,5.27
2023-04-28T17:18:36.665Z,4.27
2023-04-28T17:21:05.522Z,4.50
2023-04-28T17:23:33.681Z,4.40
2023-04-28T17:26:03.305Z,4.80
2023-04-28T17:28:32.755Z,5.37
2023-04-28T17:31:03.652Z,4.80
2023-04-28T17:33:33.244Z,5.13
2023-04-28T17:36:03.412Z,5.57
2023-04-28T17:38:32.428Z,5.63
2023-04-28T17:41:01.390Z,4.83
2023-04-28T17:43:29.811Z,5.47
2023-04-28T17:45:58.054Z,5.47
2023-04-28T17:48:26.378Z,5.33
2023-04-28T17:50:56.089Z,5.70
2023-04-28T17:53:24.884Z,4.70
2023-04-28T17:55:53.123Z,5.07
2023-04-28T17:58:22.348Z,5.10
2023-04-28T18:00:50.809Z,5.30
2023-04-28T18:03:19.069Z,5.50
2023-04-28T18:05:47.599Z,5.63
2023-04-28T18:08:17.130Z,5.60
2023-04-28T18:10:45.311Z,6.00
2023-04-28T18:13:13.467Z,5.87
2023-04-28T18:15:41.997Z,7.47
2023-04-28T18:18:11.072Z,6.93
2023-04-28T18:20:39.311Z,5.70
2023-04-28T18:23:07.997Z,6.53
2023-04-28T18:25:37.739Z,6.43
2023-04-28T18:28:08.009Z,6.00
2023-04-28T18:30:37.867Z,7.60
2023-04-28T18:33:07.871Z,6.70
2023-04-28T18:35:36.767Z,6.77
2023-04-28T18:38:06.013Z,7.20
2023-04-28T18:40:34.741Z,8.93
2023-04-28T18:43:04.278Z,7.43
2023-04-28T18:45:34.313Z,6.53
2023-04-28T18:48:03.787Z,7.33
2023-04-28T18:50:32.852Z,7.60
2023-04-28T18:53:02.517Z,7.43
2023-04-28T18:55:30.775Z,7.97
2023-04-28T18:58:01.734Z,6.57
2023-04-28T19:00:32.301Z,6.00
2023-04-28T19:03:01.663Z,6.87
2023-04-28T19:05:31.327Z,6.67
2023-04-28T19:07:59.462Z,6.43
2023-04-28T19:10:27.830Z,7.63
2023-04-28T19:12:57.383Z,7.57
2023-04-28T19:15:27.511Z,6.97
2023-04-28T19:17:57.226Z,7.50
2023-04-28T19:20:26.094Z,8.50
2023-04-28T19:22:54.398Z,7.90
2023-04-28T19:25:22.525Z,7.60
2023-04-28T19:27:50.662Z,8.40
2023-04-28T19:30:18.951Z,9.50
2023-04-28T19:32:47.180Z,7.60
2023-04-28T19:35:16.652Z,8.80
2023-04-28T19:37:44.808Z,9.30
2023-04-28T19:40:13.828Z,9.90
2023-04-28T19:42:42.030Z,10.27
2023-04-28T19:45:11.196Z,10.30
2023-04-28T19:47:39.525Z,11.07
2023-04-28T19:50:10.123Z,10.67
2023-04-28T19:52:39.779Z,9.70
2023-04-28T19:55:08.769Z,8.80
2023-04-28T19:57:37.249Z,10.23
2023-04-28T20:00:08.151Z,9.30
2023-04-28T20:02:36.480Z,11.37
2023-04-28T20:05:05.842Z,9.80
2023-04-28T20:07:34.109Z,11.27
2023-04-28T20:10:03.688Z,9.47
2023-04-28T20:12:32.814Z,10.80
2023-04-28T20:15:01.014Z,10.10
2023-04-28T20:17:29.215Z,10.90
2023-04-28T20:19:57.573Z,10.33
2023-04-28T20:22:26.372Z,10.03
2023-04-28T20:24:54.681Z,9.20
2023-04-28T20:27:24.266Z,9.23
2023-04-28T20:29:53.632Z,10.33
2023-04-28T20:32:21.791Z,10.00
2023-04-28T20:34:50.049Z,9.60
2023-04-28T20:37:20.818Z,10.53
2023-04-28T20:39:50.514Z,9.10
2023-04-28T20:42:18.863Z,10.40
2023-04-28T20:44:48.378Z,9.60
2023-04-28T20:47:16.610Z,10.00
2023-04-28T20:49:44.881Z,11.77
2023-04-28T20:52:13.046Z,11.03
2023-04-28T20:54:43.579Z,10.27
2023-04-28T20:57:12.325Z,10.60
2023-04-28T20:59:40.556Z,10.60
2023-04-28T21:02:10.078Z,9.90
2023-04-28T21:04:38.234Z,11.80
2023-04-28T21:07:06.519Z,10.40
2023-04-28T21:09:35.844Z,10.13
2023-04-28T21:12:04.351Z,9.20
2023-04-28T21:14:35.709Z,9.90
2023-04-28T21:17:04.326Z,10.30
2023-04-28T21:19:34.203Z,10.53
2023-04-28T21:22:02.353Z,10.33
2023-04-28T21:24:30.518Z,9.13
2023-04-28T21:26:59.498Z,9.63
2023-04-28T21:29:28.211Z,10.13
2023-04-28T21:31:56.468Z,9.13
2023-04-28T21:34:24.740Z,10.93
2023-04-28T21:36:54.341Z,9.90
2023-04-28T21:39:22.788Z,9.50
2023-04-28T21:41:50.959Z,10.40
2023-04-28T21:44:19.561Z,10.23
2023-04-28T21:46:47.767Z,10.97
2023-04-28T21:49:16.241Z,9.53
2023-04-28T21:51:45.851Z,9.80
2023-04-28T21:54:15.429Z,9.97
2023-04-28T21:56:43.697Z,9.73
2023-04-28T21:59:12.314Z,10.80
2023-04-28T22:01:41.618Z,9.73
2023-04-28T22:04:10.030Z,10.00
2023-04-28T22:06:38.537Z,9.10
2023-04-28T22:09:07.289Z,9.73
2023-04-28T22:11:36.872Z,9.30
2023-04-28T22:14:05.715Z,9.03
2023-04-28T22:16:33.933Z,9.33
2023-04-28T22:19:02.726Z,9.00
2023-04-28T22:21:32.158Z,10.27
2023-04-28T22:24:00.358Z,9.50
2023-04-28T22:26:31.377Z,9.80
2023-04-28T22:29:02.122Z,10.37
2023-04-28T22:31:30.427Z,9.70
2023-04-28T22:33:58.634Z,10.77
2023-04-28T22:36:27.674Z,10.90
2023-04-28T22:38:55.864Z,9.93
2023-04-28T22:41:24.733Z,10.77
2023-04-28T22:43:53.228Z,8.83
2023-04-28T22:46:23.062Z,9.27
2023-04-28T22:48:51.860Z,9.30
2023-04-28T22:51:20.328Z,9.17
2023-04-28T22:53:48.671Z,8.90
2023-04-28T22:56:16.927Z,8.70
2023-04-28T22:58:45.120Z,9.40
2023-04-28T23:01:13.346Z,8.93
2023-04-28T23:03:43.032Z,9.43
2023-04-28T23:06:11.462Z,7.93
2023-04-28T23:08:39.697Z,9.53
2023-04-28T23:11:07.919Z,9.07
2023-04-28T23:13:36.149Z,7.50
2023-04-28T23:16:04.496Z,8.83
2023-04-28T23:18:33.884Z,8.70
2023-04-28T23:21:03.355Z,8.67
2023-04-28T23:23:32.586Z,9.80
2023-04-28T23:26:01.464Z,9.43
2023-04-28T23:28:29.702Z,9.27
2023-04-28T23:30:57.911Z,8.43
2023-04-28T23:33:26.427Z,9.50
2023-04-28T23:35:54.947Z,9.43
2023-04-28T23:38:25.520Z,10.43
2023-04-28T23:40:53.689Z,8.93
2023-04-28T23:43:22.209Z,10.13
2023-04-28T23:45:50.576Z,10.60
2023-04-28T23:48:18.833Z,9.17
2023-04-28T23:50:47.344Z,10.17
2023-04-28T23:53:15.536Z,8.70
2023-04-28T23:55:45.371Z,9.27
2023-04-28T23:58:13.555Z,9.17
